Time;durP1;ratioP1;P1;durP2;ratioP2;P2;SDS_P1;SDS_P2;PMS_P1;PMS_P2;Temp;Humidity;BMP_temperature;BMP_pressure;BME280_temperature;BME280_humidity;BME280_pressure;Samples;Min_cycle;Max_cycle;Signal;HPM_P1;HPM_P2
2023/01/31 00:02:14;;;;;;;;;;;4.60;99.90;;;;;;5114536;28;19914;-44
2023/01/31 00:04:39;;;;;;;;;;;4.60;99.90;;;;;;5114416;28;19908;-43
2023/01/31 00:07:05;;;;;;;;;;;4.60;99.90;;;;;;5113725;28;19907;-43
2023/01/31 00:09:30;;;;;;;;;;;4.50;99.90;;;;;;5122200;27;19933;-43
2023/01/31 00:11:56;;;;;;;;;;;4.50;99.90;;;;;;5134894;27;20327;-44
2023/01/31 00:14:21;;;;;;;;;;;4.50;99.90;;;;;;5134252;27;19915;-43
2023/01/31 00:16:47;;;;;;;;;;;4.50;99.90;;;;;;5134834;27;19930;-42
2023/01/31 00:19:12;;;;;;;;;;;4.50;99.90;;;;;;5134561;27;19911;-43
2023/01/31 00:21:42;;;;;;;;;;;4.40;99.90;;;;;;5134009;27;19964;-43
2023/01/31 00:24:08;;;;;;;;;;;4.30;99.90;;;;;;5134598;27;20354;-42
2023/01/31 00:26:34;;;;;;;;;;;4.20;99.90;;;;;;5134757;27;19911;-42
2023/01/31 00:29:01;;;;;;;;;;;4.00;99.90;;;;;;5114585;27;20010;-43
2023/01/31 00:31:27;;;;;;;;;;;4.00;99.90;;;;;;5114090;28;19914;-43
2023/01/31 00:33:53;;;;;;;;;;;3.90;99.90;;;;;;5113810;28;20358;-42
2023/01/31 00:36:20;;;;;;;;;;;3.80;99.90;;;;;;5113195;28;19936;-43
2023/01/31 00:38:50;;;;;;;;;;;3.70;99.90;;;;;;5115185;27;20331;-43
2023/01/31 00:41:16;;;;;;;;;;;3.60;99.90;;;;;;5134418;27;19908;-43
2023/01/31 00:43:42;;;;;;;;;;;3.70;99.90;;;;;;5133598;27;20350;-43
2023/01/31 00:46:07;;;;;;;;;;;3.70;99.90;;;;;;5134222;27;19908;-43
2023/01/31 00:48:33;;;;;;;;;;;3.80;99.90;;;;;;5133092;27;19911;-44
2023/01/31 00:50:58;;;;;;;;;;;3.80;99.90;;;;;;5132826;27;19915;-43
2023/01/31 00:53:24;;;;;;;;;;;3.90;99.90;;;;;;5134167;27;20380;-42
2023/01/31 00:55:53;;;;;;;;;;;3.90;99.90;;;;;;5133121;27;20385;-44
2023/01/31 00:58:19;;;;;;;;;;;3.90;99.90;;;;;;5134027;27;20026;-43
2023/01/31 01:00:45;;;;;;;;;;;3.90;99.90;;;;;;5134003;27;20010;-44
2023/01/31 01:03:11;;;;;;;;;;;3.80;99.90;;;;;;5133340;27;19911;-43
2023/01/31 01:05:36;;;;;;;;;;;3.80;99.90;;;;;;5133872;27;19915;-44
2023/01/31 01:08:01;;;;;;;;;;;3.70;99.90;;;;;;5132917;27;19914;-43
2023/01/31 01:10:27;;;;;;;;;;;3.70;99.90;;;;;;5116631;27;19911;-44
2023/01/31 01:12:52;;;;;;;;;;;3.70;99.90;;;;;;5113291;28;19914;-43
2023/01/31 01:15:18;;;;;;;;;;;3.60;99.90;;;;;;5113265;28;20351;-43
2023/01/31 01:17:43;;;;;;;;;;;3.70;99.90;;;;;;5112402;28;19959;-43
2023/01/31 01:20:09;;;;;;;;;;;3.60;99.90;;;;;;5113229;28;19912;-44
2023/01/31 01:22:35;;;;;;;;;;;3.60;99.90;;;;;;5113169;28;20006;-43
2023/01/31 01:25:01;;;;;;;;;;;3.50;99.90;;;;;;5112376;28;19908;-42
2023/01/31 01:27:27;;;;;;;;;;;3.50;99.90;;;;;;5113213;28;19951;-43
2023/01/31 01:29:52;;;;;;;;;;;3.40;99.90;;;;;;5113096;28;19908;-44
2023/01/31 01:32:18;;;;;;;;;;;3.50;99.90;;;;;;5112397;28;19912;-43
2023/01/31 01:34:43;;;;;;;;;;;3.50;99.90;;;;;;5113110;28;19911;-43
2023/01/31 01:37:10;;;;;;;;;;;3.50;99.90;;;;;;5112932;28;19912;-43
2023/01/31 01:39:37;;;;;;;;;;;3.50;99.90;;;;;;5112316;28;19911;-44
2023/01/31 01:42:02;;;;;;;;;;;3.50;99.90;;;;;;5112940;28;19908;-43
2023/01/31 01:44:43;;;;;;;;;;;3.50;99.90;;;;;;5113031;28;19914;-46
2023/01/31 01:47:12;;;;;;;;;;;3.50;99.90;;;;;;5112098;28;19908;-43
2023/01/31 01:49:38;;;;;;;;;;;3.60;99.90;;;;;;5112990;28;19915;-43
2023/01/31 01:52:05;;;;;;;;;;;3.60;99.90;;;;;;5112157;28;20010;-43
2023/01/31 01:54:36;;;;;;;;;;;3.60;99.90;;;;;;5112675;28;19912;-44
2023/01/31 01:57:03;;;;;;;;;;;3.60;99.90;;;;;;5112820;28;19960;-44
2023/01/31 01:59:42;;;;;;;;;;;3.60;99.90;;;;;;5112372;28;20381;-43
2023/01/31 02:02:07;;;;;;;;;;;3.60;99.90;;;;;;5114040;28;19908;-43
2023/01/31 02:04:35;;;;;;;;;;;3.50;99.90;;;;;;5117005;28;19908;-42
2023/01/31 02:07:01;;;;;;;;;;;3.40;99.90;;;;;;5116153;28;20359;-43
2023/01/31 02:09:45;;;;;;;;;;;3.40;99.90;;;;;;5121886;27;19911;-42
2023/01/31 02:12:11;;;;;;;;;;;3.30;99.90;;;;;;5137308;27;19911;-44
2023/01/31 02:14:37;;;;;;;;;;;3.30;99.90;;;;;;5136540;27;20392;-43
2023/01/31 02:17:02;;;;;;;;;;;3.30;99.90;;;;;;5137094;27;19916;-44
2023/01/31 02:19:35;;;;;;;;;;;3.30;99.90;;;;;;5137085;27;19967;-43
2023/01/31 02:22:00;;;;;;;;;;;3.30;99.90;;;;;;5136436;27;19930;-43
2023/01/31 02:24:45;;;;;;;;;;;3.30;99.90;;;;;;5137114;27;20346;-42
2023/01/31 02:27:35;;;;;;;;;;;3.40;99.90;;;;;;5136147;27;19914;-43
2023/01/31 02:30:16;;;;;;;;;;;3.40;99.90;;;;;;5116452;28;19951;-43
2023/01/31 02:33:08;;;;;;;;;;;3.50;99.90;;;;;;5116284;28;19908;-45
2023/01/31 02:35:36;;;;;;;;;;;3.50;99.90;;;;;;5068735;28;19908;-44
2023/01/31 02:38:13;;;;;;;;;;;3.50;99.90;;;;;;5116107;28;19916;-43
2023/01/31 02:40:50;;;;;;;;;;;3.50;99.90;;;;;;5116308;28;19947;-43
2023/01/31 02:43:15;;;;;;;;;;;3.50;99.90;;;;;;5115442;28;19998;-43
2023/01/31 02:45:40;;;;;;;;;;;3.60;99.90;;;;;;5117226;27;19966;-43
2023/01/31 02:48:18;;;;;;;;;;;3.60;99.90;;;;;;5115644;28;19908;-46
2023/01/31 02:50:44;;;;;;;;;;;3.60;99.90;;;;;;5116026;28;19952;-43
2023/01/31 02:53:28;;;;;;;;;;;3.60;99.90;;;;;;5115892;28;19912;-45
2023/01/31 02:56:16;;;;;;;;;;;3.60;99.90;;;;;;5114806;28;20309;-42
2023/01/31 02:59:01;;;;;;;;;;;3.60;99.90;;;;;;5115853;27;19927;-43
2023/01/31 03:01:30;;;;;;;;;;;3.60;99.90;;;;;;5115636;27;20369;-42
2023/01/31 03:03:58;;;;;;;;;;;3.60;99.90;;;;;;5114547;28;19907;-42
2023/01/31 03:06:24;;;;;;;;;;;3.60;99.90;;;;;;5115779;28;19914;-43
2023/01/31 03:08:52;;;;;;;;;;;3.70;99.90;;;;;;5115539;28;19994;-45
2023/01/31 03:11:18;;;;;;;;;;;3.60;99.90;;;;;;5114868;28;19908;-45
2023/01/31 03:13:44;;;;;;;;;;;3.60;99.90;;;;;;5114588;28;19912;-42
2023/01/31 03:19:12;;;;;;;;;;;3.70;99.90;;;;;;5115355;28;20275;-43
2023/01/31 03:21:40;;;;;;;;;;;3.70;99.90;;;;;;5115384;27;19911;-44
2023/01/31 03:24:07;;;;;;;;;;;3.80;99.90;;;;;;5114496;28;19908;-43
2023/01/31 03:26:33;;;;;;;;;;;3.80;99.90;;;;;;5115605;28;19907;-44
2023/01/31 03:29:00;;;;;;;;;;;3.90;99.90;;;;;;5115189;28;19907;-43
2023/01/31 03:31:29;;;;;;;;;;;3.80;99.90;;;;;;5114471;28;19911;-45
2023/01/31 03:33:57;;;;;;;;;;;3.80;99.90;;;;;;5115166;28;19934;-44
2023/01/31 03:36:25;;;;;;;;;;;3.80;99.90;;;;;;5115251;28;19914;-44
2023/01/31 03:39:10;;;;;;;;;;;3.90;99.90;;;;;;5114193;28;19963;-43
2023/01/31 03:41:44;;;;;;;;;;;3.90;99.90;;;;;;5115100;28;19912;-43
2023/01/31 03:44:29;;;;;;;;;;;3.90;99.90;;;;;;5114879;28;19995;-44
2023/01/31 03:46:58;;;;;;;;;;;3.90;99.90;;;;;;5114812;28;19935;-44
2023/01/31 03:49:25;;;;;;;;;;;4.00;99.90;;;;;;5129108;27;19964;-43
2023/01/31 03:51:53;;;;;;;;;;;4.00;99.90;;;;;;5134533;27;19914;-44
2023/01/31 03:54:21;;;;;;;;;;;4.00;99.90;;;;;;5135021;27;20430;-43
2023/01/31 03:56:51;;;;;;;;;;;4.00;99.90;;;;;;5134939;27;19912;-43
2023/01/31 03:59:19;;;;;;;;;;;4.10;99.90;;;;;;5134733;27;19923;-45
2023/01/31 04:01:47;;;;;;;;;;;4.10;99.90;;;;;;5135251;27;19917;-43
2023/01/31 04:04:22;;;;;;;;;;;4.10;99.90;;;;;;5134982;27;19954;-44
2023/01/31 04:06:47;;;;;;;;;;;4.10;99.90;;;;;;5134303;27;19911;-45
2023/01/31 04:09:13;;;;;;;;;;;4.20;99.90;;;;;;5133524;27;19972;-43
2023/01/31 04:11:39;;;;;;;;;;;4.30;99.90;;;;;;5114533;28;19908;-45
2023/01/31 04:14:05;;;;;;;;;;;4.30;99.90;;;;;;5113594;28;19998;-44
2023/01/31 04:16:30;;;;;;;;;;;4.30;99.90;;;;;;5114407;28;19991;-44
2023/01/31 04:18:56;;;;;;;;;;;4.40;99.90;;;;;;5114024;28;19923;-44
2023/01/31 04:21:21;;;;;;;;;;;4.40;99.90;;;;;;5113549;28;20354;-43
2023/01/31 04:23:47;;;;;;;;;;;4.50;99.90;;;;;;5114412;28;19912;-43
2023/01/31 04:26:12;;;;;;;;;;;4.60;99.90;;;;;;5113913;28;19908;-44
2023/01/31 04:28:38;;;;;;;;;;;4.60;99.90;;;;;;5113489;28;19908;-44
2023/01/31 04:31:03;;;;;;;;;;;4.60;99.90;;;;;;5114032;28;19908;-43
2023/01/31 04:33:29;;;;;;;;;;;4.70;99.90;;;;;;5113971;28;19908;-43
2023/01/31 04:35:54;;;;;;;;;;;4.70;99.90;;;;;;5113184;28;20000;-43
2023/01/31 04:38:20;;;;;;;;;;;4.70;99.90;;;;;;5113839;28;19939;-44
2023/01/31 04:40:45;;;;;;;;;;;4.80;99.90;;;;;;5126936;27;19919;-42
2023/01/31 04:43:11;;;;;;;;;;;4.80;99.90;;;;;;5134354;27;20274;-45
2023/01/31 04:45:36;;;;;;;;;;;4.80;99.90;;;;;;5134363;27;19939;-44
2023/01/31 04:48:02;;;;;;;;;;;4.80;99.90;;;;;;5133394;27;20002;-43
2023/01/31 04:50:28;;;;;;;;;;;4.90;99.90;;;;;;5134478;27;19907;-42
2023/01/31 04:52:54;;;;;;;;;;;4.90;99.90;;;;;;5134410;27;19915;-43
2023/01/31 04:55:20;;;;;;;;;;;4.90;99.90;;;;;;5133156;27;19920;-43
2023/01/31 04:57:45;;;;;;;;;;;5.00;99.90;;;;;;5134111;27;19919;-43
2023/01/31 05:00:11;;;;;;;;;;;5.00;99.90;;;;;;5134025;27;19915;-43
2023/01/31 05:02:37;;;;;;;;;;;5.00;99.90;;;;;;5133236;27;19907;-43
2023/01/31 05:05:03;;;;;;;;;;;5.00;99.90;;;;;;5133651;27;20013;-42
2023/01/31 05:07:28;;;;;;;;;;;5.10;99.90;;;;;;5132222;27;20377;-44
2023/01/31 05:09:54;;;;;;;;;;;5.10;99.90;;;;;;5119324;27;20003;-43
2023/01/31 05:12:19;;;;;;;;;;;5.10;99.90;;;;;;5121077;27;19911;-43
2023/01/31 05:14:45;;;;;;;;;;;5.10;99.90;;;;;;5120505;27;19914;-43
2023/01/31 05:17:10;;;;;;;;;;;5.10;99.90;;;;;;5112404;28;19981;-44
2023/01/31 05:19:36;;;;;;;;;;;5.10;99.90;;;;;;5113127;28;19908;-43
2023/01/31 05:22:01;;;;;;;;;;;5.10;99.90;;;;;;5113266;28;19986;-43
2023/01/31 05:24:28;;;;;;;;;;;5.10;99.90;;;;;;5112517;28;19950;-43
2023/01/31 05:26:57;;;;;;;;;;;5.10;99.90;;;;;;5113180;28;19914;-44
2023/01/31 05:29:24;;;;;;;;;;;5.10;99.90;;;;;;5122044;27;19919;-44
2023/01/31 05:31:51;;;;;;;;;;;5.20;99.90;;;;;;5119451;28;19967;-44
2023/01/31 05:34:16;;;;;;;;;;;5.20;99.90;;;;;;5122098;28;19944;-46
2023/01/31 05:36:42;;;;;;;;;;;5.20;99.90;;;;;;5124947;27;19959;-43
2023/01/31 05:39:08;;;;;;;;;;;5.20;99.90;;;;;;5124368;27;19961;-44
2023/01/31 05:41:33;;;;;;;;;;;5.30;99.90;;;;;;5124511;27;19918;-43
2023/01/31 05:43:59;;;;;;;;;;;5.30;99.90;;;;;;5124895;27;19916;-43
2023/01/31 05:46:24;;;;;;;;;;;5.30;99.90;;;;;;5126949;27;19908;-43
2023/01/31 05:48:50;;;;;;;;;;;5.40;99.90;;;;;;5124548;27;19961;-44
2023/01/31 05:51:15;;;;;;;;;;;5.40;99.90;;;;;;5116481;28;19962;-43
2023/01/31 05:53:40;;;;;;;;;;;5.40;99.90;;;;;;5117207;28;19915;-44
2023/01/31 05:56:06;;;;;;;;;;;5.60;99.90;;;;;;5116776;28;19920;-44
2023/01/31 05:58:31;;;;;;;;;;;5.50;99.90;;;;;;5116237;28;19938;-44
2023/01/31 06:00:57;;;;;;;;;;;5.60;99.90;;;;;;5116850;28;19907;-43
2023/01/31 06:03:22;;;;;;;;;;;5.60;99.90;;;;;;5117106;28;19907;-43
2023/01/31 06:05:48;;;;;;;;;;;5.50;99.90;;;;;;5116234;28;20299;-44
2023/01/31 06:08:13;;;;;;;;;;;5.60;99.90;;;;;;5116805;28;19915;-43
2023/01/31 06:10:39;;;;;;;;;;;5.60;99.90;;;;;;5126840;27;19911;-44
2023/01/31 06:13:06;;;;;;;;;;;5.60;99.90;;;;;;5136604;27;19911;-43
2023/01/31 06:15:32;;;;;;;;;;;5.60;99.90;;;;;;5137250;27;19960;-43
2023/01/31 06:17:58;;;;;;;;;;;5.60;99.90;;;;;;5137077;27;19916;-43
2023/01/31 06:20:24;;;;;;;;;;;5.60;99.90;;;;;;5136321;27;20319;-43
2023/01/31 06:22:49;;;;;;;;;;;5.60;99.90;;;;;;5137196;27;19914;-43
2023/01/31 06:25:15;;;;;;;;;;;5.60;99.90;;;;;;5137064;27;19911;-43
2023/01/31 06:27:41;;;;;;;;;;;5.60;99.90;;;;;;5136367;27;19914;-43
2023/01/31 06:30:06;;;;;;;;;;;5.60;99.90;;;;;;5136549;27;19911;-43
2023/01/31 06:32:32;;;;;;;;;;;5.50;99.90;;;;;;5136884;27;19938;-44
2023/01/31 06:34:57;;;;;;;;;;;5.60;99.90;;;;;;5136103;27;20365;-43
2023/01/31 06:37:23;;;;;;;;;;;5.60;99.90;;;;;;5136717;27;19959;-43
2023/01/31 06:39:48;;;;;;;;;;;5.60;99.90;;;;;;5136788;27;19912;-43
2023/01/31 06:42:14;;;;;;;;;;;5.60;99.90;;;;;;5135914;27;20326;-44
2023/01/31 06:44:39;;;;;;;;;;;5.60;99.90;;;;;;5136669;27;19907;-43
2023/01/31 06:47:05;;;;;;;;;;;5.60;99.90;;;;;;5136591;27;19918;-44
2023/01/31 06:49:30;;;;;;;;;;;5.60;99.90;;;;;;5130311;27;19912;-42
2023/01/31 06:51:56;;;;;;;;;;;5.70;99.90;;;;;;5131598;27;20006;-43
2023/01/31 06:54:21;;;;;;;;;;;5.70;99.90;;;;;;5135572;27;19994;-43
2023/01/31 06:56:47;;;;;;;;;;;5.70;99.90;;;;;;5136583;27;20013;-44
2023/01/31 06:59:12;;;;;;;;;;;5.70;99.90;;;;;;5136204;27;19938;-44
2023/01/31 07:01:38;;;;;;;;;;;5.70;99.90;;;;;;5135670;27;20038;-43
2023/01/31 07:04:03;;;;;;;;;;;5.70;99.90;;;;;;5136187;27;19953;-44
2023/01/31 07:06:29;;;;;;;;;;;5.70;99.90;;;;;;5136356;27;19908;-42
2023/01/31 07:08:54;;;;;;;;;;;5.80;99.90;;;;;;5132704;27;21489;-44
2023/01/31 07:11:20;;;;;;;;;;;5.80;99.90;;;;;;5115671;27;19916;-43
2023/01/31 07:13:46;;;;;;;;;;;5.80;99.90;;;;;;5115545;28;20063;-44
2023/01/31 07:16:12;;;;;;;;;;;5.80;99.90;;;;;;5114623;28;20374;-43
2023/01/31 07:18:38;;;;;;;;;;;5.80;99.90;;;;;;5115530;28;20396;-44
2023/01/31 07:21:05;;;;;;;;;;;5.80;99.90;;;;;;5115367;28;19990;-44
2023/01/31 07:23:30;;;;;;;;;;;5.90;99.90;;;;;;5114696;28;19953;-44
2023/01/31 07:25:56;;;;;;;;;;;5.90;99.90;;;;;;5115275;28;19908;-43
2023/01/31 07:28:21;;;;;;;;;;;5.90;99.90;;;;;;5115160;28;19915;-43
2023/01/31 07:30:47;;;;;;;;;;;5.90;99.90;;;;;;5118854;27;19915;-42
2023/01/31 07:33:12;;;;;;;;;;;5.90;99.90;;;;;;5122914;27;19999;-44
2023/01/31 07:35:38;;;;;;;;;;;6.00;99.90;;;;;;5115184;28;19955;-44
2023/01/31 07:38:03;;;;;;;;;;;5.90;99.90;;;;;;5116977;27;19920;-43
2023/01/31 07:40:29;;;;;;;;;;;5.90;99.90;;;;;;5124453;27;19961;-43
2023/01/31 07:42:58;;;;;;;;;;;6.00;99.90;;;;;;5120602;27;19915;-43
2023/01/31 07:45:23;;;;;;;;;;;6.00;99.90;;;;;;5122943;27;20415;-44
2023/01/31 07:47:49;;;;;;;;;;;6.00;99.90;;;;;;5135533;27;19912;-44
2023/01/31 07:50:14;;;;;;;;;;;6.10;99.90;;;;;;5123304;27;19915;-45
2023/01/31 07:52:40;;;;;;;;;;;6.10;99.90;;;;;;5131470;27;19918;-44
2023/01/31 07:55:05;;;;;;;;;;;6.10;99.90;;;;;;5134974;27;20416;-43
2023/01/31 07:57:31;;;;;;;;;;;6.10;99.90;;;;;;5135196;27;19972;-45
2023/01/31 07:59:56;;;;;;;;;;;6.20;99.90;;;;;;5133958;27;19908;-46
2023/01/31 08:05:07;;;;;;;;;;;6.20;99.90;;;;;;5134400;27;19915;-43
2023/01/31 08:07:32;;;;;;;;;;;6.20;99.90;;;;;;5133909;27;19911;-45
2023/01/31 08:09:58;;;;;;;;;;;6.20;99.90;;;;;;5134953;27;19907;-45
2023/01/31 08:12:23;;;;;;;;;;;6.20;99.90;;;;;;5123090;27;19918;-45
2023/01/31 08:14:49;;;;;;;;;;;6.30;99.90;;;;;;5114359;28;19912;-44
2023/01/31 08:17:14;;;;;;;;;;;6.30;99.90;;;;;;5114156;28;19967;-44
2023/01/31 08:19:40;;;;;;;;;;;6.30;99.90;;;;;;5113438;28;20286;-45
2023/01/31 08:22:05;;;;;;;;;;;6.30;99.90;;;;;;5122596;27;19911;-45
2023/01/31 08:24:31;;;;;;;;;;;6.30;99.90;;;;;;5131066;27;19920;-43
2023/01/31 08:26:57;;;;;;;;;;;6.30;99.90;;;;;;5131349;27;19915;-45
2023/01/31 08:29:23;;;;;;;;;;;6.30;99.90;;;;;;5123814;27;19943;-45
2023/01/31 08:31:49;;;;;;;;;;;6.40;99.90;;;;;;5134687;27;19918;-44
2023/01/31 08:34:14;;;;;;;;;;;6.40;99.90;;;;;;5117010;27;19953;-44
2023/01/31 08:36:40;;;;;;;;;;;6.40;99.90;;;;;;5113942;28;19915;-45
2023/01/31 08:39:05;;;;;;;;;;;6.50;99.90;;;;;;5119867;27;19919;-45
2023/01/31 08:41:32;;;;;;;;;;;6.50;99.90;;;;;;5133549;27;19965;-45
2023/01/31 08:43:58;;;;;;;;;;;6.50;99.90;;;;;;5133664;27;20274;-43
2023/01/31 08:46:25;;;;;;;;;;;6.60;99.90;;;;;;5120971;27;20354;-45
2023/01/31 08:48:50;;;;;;;;;;;6.60;99.90;;;;;;5112972;28;20421;-44
2023/01/31 08:51:16;;;;;;;;;;;6.60;99.90;;;;;;5113624;28;19999;-43
2023/01/31 08:53:43;;;;;;;;;;;6.70;99.90;;;;;;5113603;28;19907;-44
2023/01/31 08:56:09;;;;;;;;;;;6.70;99.90;;;;;;5112572;28;20006;-45
2023/01/31 08:58:36;;;;;;;;;;;6.70;99.90;;;;;;5113585;28;19919;-44
2023/01/31 09:01:02;;;;;;;;;;;6.70;99.90;;;;;;5112858;28;19951;-45
2023/01/31 09:03:28;;;;;;;;;;;6.70;99.90;;;;;;5113712;28;19951;-45
2023/01/31 09:05:53;;;;;;;;;;;6.70;99.90;;;;;;5115960;27;19962;-45
2023/01/31 09:08:19;;;;;;;;;;;6.80;99.90;;;;;;5133142;27;20237;-45
2023/01/31 09:10:51;;;;;;;;;;;6.80;99.90;;;;;;5133541;27;19907;-44
2023/01/31 09:13:17;;;;;;;;;;;6.80;99.90;;;;;;5133161;27;20281;-44
2023/01/31 09:15:42;;;;;;;;;;;6.80;99.90;;;;;;5133360;27;19914;-43
2023/01/31 09:18:08;;;;;;;;;;;6.90;99.90;;;;;;5134049;27;19918;-44
2023/01/31 09:20:33;;;;;;;;;;;6.90;99.90;;;;;;5133831;27;20361;-44
2023/01/31 09:22:58;;;;;;;;;;;6.90;99.90;;;;;;5115922;28;19915;-45
2023/01/31 09:25:24;;;;;;;;;;;6.90;99.90;;;;;;5120246;27;19964;-44
2023/01/31 09:27:51;;;;;;;;;;;6.90;99.90;;;;;;5133827;27;20015;-47
2023/01/31 09:30:17;;;;;;;;;;;7.00;99.90;;;;;;5132828;27;19914;-46
2023/01/31 09:32:43;;;;;;;;;;;6.90;99.90;;;;;;5131141;28;19915;-44
2023/01/31 09:35:08;;;;;;;;;;;7.00;99.90;;;;;;5123530;28;19911;-45
2023/01/31 09:37:34;;;;;;;;;;;7.00;99.90;;;;;;5112182;28;19918;-45
2023/01/31 09:39:59;;;;;;;;;;;7.00;99.90;;;;;;5129534;28;19911;-46
2023/01/31 09:42:25;;;;;;;;;;;7.00;99.90;;;;;;5133538;28;20297;-45
2023/01/31 09:44:59;;;;;;;;;;;7.10;99.90;;;;;;5132893;28;19908;-46
2023/01/31 09:47:27;;;;;;;;;;;7.10;99.90;;;;;;5133373;28;20354;-45
2023/01/31 09:50:11;;;;;;;;;;;7.20;99.90;;;;;;5133491;28;19908;-44
2023/01/31 09:52:37;;;;;;;;;;;7.20;99.90;;;;;;5112957;28;19907;-45
2023/01/31 09:55:02;;;;;;;;;;;7.30;99.90;;;;;;5130741;28;19927;-46
2023/01/31 09:57:35;;;;;;;;;;;7.30;99.90;;;;;;5131915;28;19919;-45
2023/01/31 10:00:01;;;;;;;;;;;7.30;99.90;;;;;;5131605;28;20362;-46
2023/01/31 10:02:26;;;;;;;;;;;7.40;99.90;;;;;;5131688;28;19939;-46
2023/01/31 10:04:52;;;;;;;;;;;7.40;99.90;;;;;;5111692;28;20354;-46
2023/01/31 10:07:26;;;;;;;;;;;7.40;99.90;;;;;;5112684;28;19908;-45
2023/01/31 10:10:04;;;;;;;;;;;7.50;99.90;;;;;;5112914;28;20158;-43
2023/01/31 10:12:35;;;;;;;;;;;7.50;99.90;;;;;;5112101;28;19935;-44
2023/01/31 10:15:03;;;;;;;;;;;7.50;99.90;;;;;;5112795;28;19934;-44
2023/01/31 10:17:32;;;;;;;;;;;7.50;99.90;;;;;;5112599;28;19912;-44
2023/01/31 10:20:09;;;;;;;;;;;7.60;99.90;;;;;;5112171;28;19912;-45
2023/01/31 10:22:40;;;;;;;;;;;7.50;99.90;;;;;;5112910;28;19915;-46
2023/01/31 10:25:12;;;;;;;;;;;7.50;99.90;;;;;;5116456;28;19912;-45
2023/01/31 10:27:37;;;;;;;;;;;7.50;99.90;;;;;;5115736;28;19908;-44
2023/01/31 10:30:03;;;;;;;;;;;7.50;99.90;;;;;;5116560;27;19915;-43
2023/01/31 10:32:41;;;;;;;;;;;7.50;99.90;;;;;;5115682;28;19996;-44
2023/01/31 10:35:09;;;;;;;;;;;7.50;99.90;;;;;;5116392;28;19915;-43
2023/01/31 10:37:37;;;;;;;;;;;7.50;99.90;;;;;;5116321;28;19912;-44
2023/01/31 10:40:05;;;;;;;;;;;7.50;99.90;;;;;;5115349;28;20366;-43
2023/01/31 10:42:35;;;;;;;;;;;7.60;99.90;;;;;;5134494;27;19952;-44
2023/01/31 10:45:02;;;;;;;;;;;7.60;99.90;;;;;;5136714;27;20006;-45
2023/01/31 10:47:35;;;;;;;;;;;7.60;99.90;;;;;;5136024;27;19961;-44
2023/01/31 10:50:10;;;;;;;;;;;7.60;99.90;;;;;;5136859;27;20002;-43
2023/01/31 10:52:48;;;;;;;;;;;7.50;99.90;;;;;;5117169;27;19912;-44
2023/01/31 10:55:16;;;;;;;;;;;7.50;99.90;;;;;;5114915;28;19931;-44
2023/01/31 10:57:42;;;;;;;;;;;7.40;99.90;;;;;;5115913;28;19911;-43
2023/01/31 11:00:16;;;;;;;;;;;7.40;99.90;;;;;;5115916;28;20281;-45
2023/01/31 11:02:41;;;;;;;;;;;7.30;99.90;;;;;;5115245;28;19908;-43
2023/01/31 11:05:14;;;;;;;;;;;7.30;99.90;;;;;;5115798;28;20347;-44
2023/01/31 11:07:40;;;;;;;;;;;7.20;99.90;;;;;;5115115;28;19930;-42
2023/01/31 11:10:21;;;;;;;;;;;7.20;99.90;;;;;;5115714;28;20349;-41
2023/01/31 11:12:54;;;;;;;;;;;7.20;99.90;;;;;;5115770;28;19912;-43
2023/01/31 11:15:22;;;;;;;;;;;7.20;99.90;;;;;;5114793;28;19908;-42
2023/01/31 11:17:48;;;;;;;;;;;7.20;99.90;;;;;;5115533;28;19921;-43
2023/01/31 11:20:23;;;;;;;;;;;7.20;99.90;;;;;;5115516;28;19908;-44
2023/01/31 11:22:48;;;;;;;;;;;7.20;99.90;;;;;;5118377;27;19916;-43
2023/01/31 11:25:18;;;;;;;;;;;7.10;99.90;;;;;;5119055;27;20384;-43
2023/01/31 11:27:43;;;;;;;;;;;7.20;99.90;;;;;;5115835;27;19911;-42
2023/01/31 11:30:24;;;;;;;;;;;7.20;99.90;;;;;;5114535;28;20326;-42
2023/01/31 11:32:49;;;;;;;;;;;7.20;99.90;;;;;;5115325;28;19915;-43
2023/01/31 11:35:15;;;;;;;;;;;7.20;99.90;;;;;;5114204;28;20294;-42
2023/01/31 11:38:03;;;;;;;;;;;7.30;99.90;;;;;;5132447;27;20276;-44
2023/01/31 11:40:29;;;;;;;;;;;7.30;99.90;;;;;;5121829;27;19915;-43
2023/01/31 11:42:56;;;;;;;;;;;7.30;99.90;;;;;;5134785;27;19990;-44
2023/01/31 11:45:22;;;;;;;;;;;7.30;99.90;;;;;;5133577;27;20002;-43
2023/01/31 11:47:49;;;;;;;;;;;7.30;99.90;;;;;;5135449;27;19912;-42
2023/01/31 11:50:19;;;;;;;;;;;7.30;99.90;;;;;;5125958;27;19998;-42
2023/01/31 11:52:45;;;;;;;;;;;7.30;99.90;;;;;;5130659;27;19943;-44
2023/01/31 11:55:15;;;;;;;;;;;7.30;99.90;;;;;;5132930;27;19966;-42
2023/01/31 11:57:42;;;;;;;;;;;7.30;99.90;;;;;;5113969;28;19911;-43
2023/01/31 12:00:28;;;;;;;;;;;7.30;99.90;;;;;;5114727;28;20074;-43
2023/01/31 12:03:04;;;;;;;;;;;7.20;99.90;;;;;;5113901;27;19914;-43
2023/01/31 12:05:37;;;;;;;;;;;7.20;99.90;;;;;;5124930;27;19908;-43
2023/01/31 12:08:03;;;;;;;;;;;7.30;99.90;;;;;;5114566;28;19908;-42
2023/01/31 12:10:41;;;;;;;;;;;7.30;99.90;;;;;;5128786;27;19907;-43
2023/01/31 12:13:12;;;;;;;;;;;7.30;99.90;;;;;;5134240;27;19908;-44
2023/01/31 12:15:44;;;;;;;;;;;7.30;99.90;;;;;;5134998;27;19907;-43
2023/01/31 12:18:10;;;;;;;;;;;7.30;99.90;;;;;;5133953;27;19923;-44
2023/01/31 12:20:43;;;;;;;;;;;7.40;99.90;;;;;;5133924;27;20285;-44
2023/01/31 12:23:09;;;;;;;;;;;7.40;99.90;;;;;;5133940;27;19911;-45
2023/01/31 12:25:46;;;;;;;;;;;7.50;99.90;;;;;;5130746;27;19912;-45
2023/01/31 12:28:15;;;;;;;;;;;7.50;99.90;;;;;;5126206;27;19916;-45
2023/01/31 12:30:52;;;;;;;;;;;7.60;99.90;;;;;;5113461;27;19915;-44
2023/01/31 12:33:35;;;;;;;;;;;7.60;99.90;;;;;;5127137;27;20031;-46
2023/01/31 12:36:08;;;;;;;;;;;7.70;99.90;;;;;;5124262;27;19912;-47
2023/01/31 12:38:39;;;;;;;;;;;7.70;99.90;;;;;;5132412;27;19919;-45
2023/01/31 12:41:04;;;;;;;;;;;7.80;99.90;;;;;;5126285;27;19920;-44
2023/01/31 12:43:42;;;;;;;;;;;7.90;99.90;;;;;;5131658;27;20331;-44
2023/01/31 12:46:13;;;;;;;;;;;7.90;99.90;;;;;;5129471;27;19936;-44
2023/01/31 12:48:41;;;;;;;;;;;8.00;99.90;;;;;;5125086;27;19943;-44
2023/01/31 12:51:19;;;;;;;;;;;8.00;99.90;;;;;;5125769;27;19915;-44
2023/01/31 12:53:50;;;;;;;;;;;8.10;99.90;;;;;;5120351;27;20331;-44
2023/01/31 12:56:18;;;;;;;;;;;8.10;99.90;;;;;;5120099;27;19966;-44
2023/01/31 12:58:49;;;;;;;;;;;8.10;99.90;;;;;;5113396;28;19916;-46
2023/01/31 13:01:16;;;;;;;;;;;8.20;99.90;;;;;;5114484;27;19918;-45
2023/01/31 13:03:49;;;;;;;;;;;8.20;99.90;;;;;;5113519;28;19935;-44
2023/01/31 13:06:35;;;;;;;;;;;8.30;99.90;;;;;;5113575;28;20341;-43
2023/01/31 13:09:09;;;;;;;;;;;8.30;99.90;;;;;;5111935;28;20022;-46
2023/01/31 13:11:37;;;;;;;;;;;8.40;99.90;;;;;;5113600;28;19968;-43
2023/01/31 13:14:04;;;;;;;;;;;8.40;99.90;;;;;;5113093;28;19911;-48
2023/01/31 13:16:35;;;;;;;;;;;8.50;99.90;;;;;;5113366;28;20385;-45
2023/01/31 13:19:02;;;;;;;;;;;8.50;99.90;;;;;;5113198;28;20293;-43
2023/01/31 13:21:33;;;;;;;;;;;8.60;99.90;;;;;;5112687;28;19912;-44
2023/01/31 13:24:05;;;;;;;;;;;8.70;99.90;;;;;;5113303;28;19908;-44
2023/01/31 13:26:32;;;;;;;;;;;8.80;99.90;;;;;;5115301;27;19971;-45
2023/01/31 13:29:03;;;;;;;;;;;8.80;99.90;;;;;;5112402;28;20059;-44
2023/01/31 13:31:30;;;;;;;;;;;8.80;99.90;;;;;;5113320;28;19915;-44
2023/01/31 13:34:00;;;;;;;;;;;8.80;99.90;;;;;;5113104;28;19915;-44
2023/01/31 13:36:42;;;;;;;;;;;8.80;99.90;;;;;;5112453;28;19914;-44
2023/01/31 13:39:11;;;;;;;;;;;8.80;99.90;;;;;;5113033;28;19916;-44
2023/01/31 13:41:38;;;;;;;;;;;8.80;99.90;;;;;;5113101;28;19912;-45
2023/01/31 13:44:04;;;;;;;;;;;8.80;99.90;;;;;;5112234;28;19915;-43
2023/01/31 13:46:37;;;;;;;;;;;8.90;99.90;;;;;;5119162;28;19912;-44
2023/01/31 13:49:09;;;;;;;;;;;8.90;99.90;;;;;;5133387;28;20002;-43
2023/01/31 13:51:39;;;;;;;;;;;8.90;99.90;;;;;;5132735;28;19908;-44
2023/01/31 13:54:04;;;;;;;;;;;8.90;99.90;;;;;;5133421;28;19907;-44
2023/01/31 13:56:35;;;;;;;;;;;8.90;99.90;;;;;;5131801;28;20304;-43
2023/01/31 13:59:01;;;;;;;;;;;8.90;99.90;;;;;;5136158;27;20281;-45
2023/01/31 14:01:28;;;;;;;;;;;9.00;99.90;;;;;;5137637;27;19994;-44
2023/01/31 14:04:17;;;;;;;;;;;9.00;99.90;;;;;;5136609;27;19907;-44
2023/01/31 14:06:54;;;;;;;;;;;9.00;99.90;;;;;;5113122;27;19912;-45
2023/01/31 14:09:24;;;;;;;;;;;9.00;99.90;;;;;;5116848;28;19912;-44
2023/01/31 14:11:50;;;;;;;;;;;9.00;99.90;;;;;;5115701;28;20353;-44
2023/01/31 14:14:37;;;;;;;;;;;9.00;99.90;;;;;;5116846;28;20007;-44
2023/01/31 14:17:23;;;;;;;;;;;8.90;99.90;;;;;;5124987;27;20040;-44
2023/01/31 14:19:48;;;;;;;;;;;8.90;99.90;;;;;;5084649;27;20343;-44
2023/01/31 14:22:17;;;;;;;;;;;8.90;99.90;;;;;;5128253;27;20014;-43
2023/01/31 14:24:45;;;;;;;;;;;9.00;99.90;;;;;;5115830;28;20222;-43
2023/01/31 14:27:21;;;;;;;;;;;9.10;99.90;;;;;;5116297;28;19908;-45
2023/01/31 14:29:50;;;;;;;;;;;9.10;99.90;;;;;;5121151;27;19918;-43
2023/01/31 14:32:25;;;;;;;;;;;9.10;99.90;;;;;;5128752;27;20323;-45
2023/01/31 14:34:50;;;;;;;;;;;9.10;99.90;;;;;;5123095;27;19912;-44
2023/01/31 14:37:24;;;;;;;;;;;9.00;99.90;;;;;;5121799;27;19915;-42
2023/01/31 14:40:10;;;;;;;;;;;9.10;99.90;;;;;;5115363;27;19915;-42
2023/01/31 14:42:39;;;;;;;;;;;9.10;99.90;;;;;;5116243;28;19943;-43
2023/01/31 14:45:19;;;;;;;;;;;9.00;99.90;;;;;;5116091;28;19920;-42